createdAt,value
2019-05-02T00:03:41.023Z,22.1
2019-05-02T00:13:46.274Z,22.1
2019-05-02T00:23:49.611Z,22.1
2019-05-02T00:33:52.946Z,22
2019-05-02T00:43:56.303Z,22
2019-05-02T00:53:59.613Z,22
2019-05-02T01:04:02.975Z,22
2019-05-02T01:14:06.328Z,22
2019-05-02T01:24:09.639Z,21.9
2019-05-02T01:34:17.580Z,21.9
2019-05-02T01:44:22.658Z,21.9
2019-05-02T01:54:25.979Z,21.9
2019-05-02T02:04:29.318Z,21.8
2019-05-02T02:14:32.646Z,21.8
2019-05-02T02:24:38.370Z,21.8
2019-05-02T02:34:41.826Z,21.8
2019-05-02T02:44:45.191Z,21.8
2019-05-02T02:54:48.530Z,21.8
2019-05-02T03:04:51.902Z,21.8
2019-05-02T03:14:55.220Z,21.7
2019-05-02T03:24:58.570Z,21.7
2019-05-02T03:35:01.948Z,21.7
2019-05-02T03:45:05.700Z,21.7
2019-05-02T03:55:09.109Z,21.7
2019-05-02T04:05:12.472Z,21.7
2019-05-02T04:15:15.820Z,21.7
2019-05-02T04:25:19.168Z,21.7
2019-05-02T04:35:22.517Z,21.7
2019-05-02T04:45:52.701Z,21.7
2019-05-02T04:56:06.786Z,21.7
2019-05-02T05:06:14.295Z,21.7
2019-05-02T05:16:18.531Z,21.7
2019-05-02T05:26:22.179Z,21.9
2019-05-02T05:36:32.455Z,21.9
2019-05-02T05:46:38.603Z,21.9
2019-05-02T05:56:47.928Z,21.9
2019-05-02T06:06:53.913Z,22
2019-05-02T06:17:06.565Z,22
2019-05-02T06:27:09.916Z,22
2019-05-02T06:37:15.299Z,22.1
2019-05-02T06:47:18.843Z,22.2
2019-05-02T06:57:23.998Z,22.3
2019-05-02T07:07:30.706Z,22.3
2019-05-02T07:17:41.159Z,22.4
2019-05-02T07:27:44.494Z,22.4
2019-05-02T07:37:48.708Z,22.5
2019-05-02T07:47:53.427Z,21.7
2019-05-02T07:57:56.755Z,21
2019-05-02T08:08:00.062Z,21.1
2019-05-02T08:18:03.386Z,20.9
2019-05-02T08:28:09.985Z,20.7
2019-05-02T08:38:21.205Z,20.6
2019-05-02T08:48:24.539Z,20.8
2019-05-02T08:58:28.895Z,20.8
2019-05-02T09:08:33.215Z,20.9
2019-05-02T09:18:41.029Z,21
2019-05-02T09:29:01.521Z,21
2019-05-02T09:39:08.905Z,21.1
2019-05-02T09:49:16.311Z,21.2
2019-05-02T09:59:27.484Z,21.2
2019-05-02T10:09:36.610Z,21.3
2019-05-02T10:19:41.050Z,21.5
2019-05-02T10:30:07.864Z,21.6
2019-05-02T10:40:19.272Z,21.5
2019-05-02T10:50:22.607Z,21.6
2019-05-02T11:00:25.951Z,21.7
2019-05-02T11:10:29.279Z,21.7
2019-05-02T11:20:32.661Z,21.8
2019-05-02T11:30:35.980Z,21.9
2019-05-02T11:40:39.323Z,22
2019-05-02T11:50:42.648Z,22.2
2019-05-02T12:00:49.523Z,22.3
2019-05-02T12:10:55.696Z,22.3
2019-05-02T12:20:59.019Z,22.3
2019-05-02T12:31:02.848Z,22.4
2019-05-02T12:41:18.937Z,22.5
2019-05-02T12:51:28.675Z,22.3
2019-05-02T13:01:32.906Z,22.3
2019-05-02T13:11:41.131Z,21.9
2019-05-02T13:21:50.097Z,21.7
2019-05-02T13:32:08.610Z,21.7
2019-05-02T13:42:22.179Z,21.7
2019-05-02T13:52:25.518Z,21.5
2019-05-02T14:02:28.826Z,21.3
2019-05-02T14:12:32.162Z,21.3
2019-05-02T14:22:35.515Z,21.5
2019-05-02T14:32:38.827Z,21.2
2019-05-02T14:42:42.157Z,21.1
2019-05-02T14:52:45.766Z,20.5
2019-05-02T15:02:49.532Z,21.3
2019-05-02T15:12:59.406Z,21.1
2019-05-02T15:23:11.575Z,21.1
2019-05-02T15:33:25.583Z,21.1
2019-05-02T15:43:29.011Z,20.7
2019-05-02T15:53:32.581Z,21
2019-05-02T16:03:41.831Z,20.7
2019-05-02T16:13:52.305Z,20.6
2019-05-02T16:24:02.237Z,20.5
2019-05-02T16:34:18.226Z,20.5
2019-05-02T16:44:22.318Z,21.1
2019-05-02T16:54:25.732Z,21.6
2019-05-02T17:04:29.057Z,21.8
2019-05-02T17:14:32.401Z,22
2019-05-02T17:24:35.715Z,22.1
2019-05-02T17:34:39.055Z,22.2
2019-05-02T17:44:43.925Z,22.2
2019-05-02T17:54:47.392Z,22.3
2019-05-02T18:04:51.944Z,22.3
2019-05-02T18:15:01.151Z,22.4
2019-05-02T18:25:06.685Z,22.4
2019-05-02T18:35:11.690Z,22.4
2019-05-02T18:45:15.146Z,22.4
2019-05-02T18:55:22.918Z,22.5
2019-05-02T19:05:29.430Z,22.5
2019-05-02T19:15:34.599Z,22.5
2019-05-02T19:25:52.766Z,22.5
2019-05-02T19:35:56.316Z,22.5
2019-05-02T19:45:59.683Z,22.5
2019-05-02T19:56:03.151Z,22.5
2019-05-02T20:06:06.532Z,22.5
2019-05-02T20:16:11.687Z,22.5
2019-05-02T20:26:17.055Z,22.5
2019-05-02T20:36:22.604Z,22.5
2019-05-02T20:46:26.171Z,22.5
2019-05-02T20:56:29.502Z,22.5
2019-05-02T21:06:40.613Z,22.5
2019-05-02T21:16:47.515Z,22.5
2019-05-02T21:26:52.475Z,22.4
2019-05-02T21:36:56.027Z,22.4
2019-05-02T21:46:59.333Z,22.4
2019-05-02T21:57:02.741Z,22.4
2019-05-02T22:07:06.084Z,22.4
2019-05-02T22:17:09.429Z,22.3
2019-05-02T22:27:12.776Z,22.3
2019-05-02T22:37:16.129Z,22.3
2019-05-02T22:47:19.469Z,22.3
2019-05-02T22:57:22.795Z,22.2
2019-05-02T23:07:26.146Z,22.2
2019-05-02T23:17:29.473Z,22.2
2019-05-02T23:27:32.807Z,22.2
2019-05-02T23:37:36.148Z,22.2
2019-05-02T23:47:39.499Z,22.2
2019-05-02T23:57:42.832Z,22.1
